createdAt,value
2022-07-25T00:04:46.609Z,22.12
2022-07-25T00:09:49.250Z,21.99
2022-07-25T00:14:51.785Z,21.94
2022-07-25T00:19:54.547Z,21.86
2022-07-25T00:24:56.980Z,21.83
2022-07-25T00:29:59.742Z,21.8
2022-07-25T00:35:02.419Z,21.75
2022-07-25T00:40:05.012Z,21.73
2022-07-25T00:45:07.715Z,21.75
2022-07-25T00:50:10.328Z,21.69
2022-07-25T00:55:13.084Z,21.68
2022-07-25T01:00:15.878Z,21.7
2022-07-25T01:05:18.626Z,21.68
2022-07-25T01:10:21.156Z,21.63
2022-07-25T01:15:23.958Z,21.55
2022-07-25T01:20:26.609Z,21.4
2022-07-25T01:25:29.113Z,21.28
2022-07-25T01:30:31.783Z,21.19
2022-07-25T01:36:23.152Z,21.12
2022-07-25T01:41:26.001Z,21.14
2022-07-25T01:46:28.398Z,21.03
2022-07-25T01:51:30.944Z,21.05
2022-07-25T02:01:36.657Z,20.91
2022-07-25T02:06:39.285Z,20.9
2022-07-25T02:21:47.422Z,20.86
2022-07-25T02:26:50.069Z,20.86
2022-07-25T02:31:52.683Z,20.82
2022-07-25T02:36:58.513Z,20.74
2022-07-25T02:42:01.179Z,20.68
2022-07-25T02:47:04.224Z,20.59
2022-07-25T02:52:08.743Z,20.58
2022-07-25T02:57:11.409Z,20.53
2022-07-25T03:02:14.150Z,20.51
2022-07-25T03:07:16.928Z,20.45
2022-07-25T03:17:25.080Z,20.31
2022-07-25T03:27:30.559Z,20.28
2022-07-25T03:32:33.229Z,20.3
2022-07-25T03:37:35.958Z,20.37
2022-07-25T03:42:56.751Z,20.35
2022-07-25T03:53:05.125Z,20.37
2022-07-25T03:58:07.891Z,20.37
2022-07-25T04:03:10.539Z,20.44
2022-07-25T04:18:22.296Z,21.1
2022-07-25T04:23:28.839Z,21.18
2022-07-25T04:33:34.317Z,21.88
2022-07-25T04:38:37.113Z,22.17
2022-07-25T04:43:42.592Z,22.39
2022-07-25T04:48:42.787Z,22.54
2022-07-25T04:58:54.361Z,22.96
2022-07-25T05:14:54.636Z,23.3
2022-07-25T05:19:57.610Z,23.39
2022-07-25T05:25:00.436Z,23.53
2022-07-25T05:30:05.962Z,23.81
2022-07-25T05:35:11.701Z,24.19
2022-07-25T05:45:17.981Z,25.17
2022-07-25T05:50:20.824Z,25.81
2022-07-25T05:55:23.489Z,25.84
2022-07-25T06:00:26.433Z,25.79
2022-07-25T06:05:29.267Z,26.1
2022-07-25T06:10:34.670Z,26.36
2022-07-25T06:15:37.580Z,26.58
2022-07-25T06:20:40.292Z,26.8
2022-07-25T06:25:42.993Z,27.03
2022-07-25T06:30:45.524Z,27
2022-07-25T06:35:48.152Z,27.41
2022-07-25T06:40:51.015Z,27.94
2022-07-25T06:50:57.180Z,28.47
2022-07-25T06:56:00.271Z,29.11
2022-07-25T07:01:11.626Z,29.22
2022-07-25T07:11:17.329Z,29.72
2022-07-25T07:16:20.576Z,29.67
2022-07-25T07:21:23.333Z,30.13
2022-07-25T07:26:26.088Z,30.28
2022-07-25T07:31:29.517Z,30.57
2022-07-25T07:36:31.980Z,30.86
2022-07-25T07:41:34.918Z,30.92
2022-07-25T07:46:37.816Z,30.69
2022-07-25T07:56:43.177Z,31.43
2022-07-25T08:01:45.959Z,31.46
2022-07-25T08:06:48.985Z,31.32
2022-07-25T08:11:51.842Z,31.3
2022-07-25T08:16:54.329Z,31.29
2022-07-25T08:21:57.169Z,31.97
2022-07-25T08:27:00.092Z,32.11
2022-07-25T08:32:02.812Z,32.37
2022-07-25T08:42:11.034Z,32.39
2022-07-25T08:47:11.000Z,32.48
2022-07-25T08:52:13.783Z,32.85
2022-07-25T08:57:16.580Z,33.03
2022-07-25T09:02:19.782Z,32.96
2022-07-25T09:07:22.637Z,33.4
2022-07-25T09:12:26.117Z,32.98
2022-07-25T09:17:27.891Z,33.68
2022-07-25T09:22:30.691Z,34.26
2022-07-25T09:27:33.121Z,33.98
2022-07-25T09:32:35.923Z,34.78
2022-07-25T09:37:41.734Z,34.52
2022-07-25T09:42:44.637Z,34.81
2022-07-25T09:47:47.251Z,34.87
2022-07-25T09:52:49.893Z,34.79
2022-07-25T09:57:52.650Z,35.49
2022-07-25T10:02:55.537Z,35.56
2022-07-25T10:07:58.400Z,35.76
2022-07-25T10:13:03.210Z,35.81
2022-07-25T10:18:04.164Z,36.34
2022-07-25T10:23:06.964Z,36.44
2022-07-25T10:28:09.430Z,35.89
2022-07-25T10:33:14.922Z,35.9
2022-07-25T10:38:20.949Z,36.03
2022-07-25T10:43:23.866Z,36.21
2022-07-25T10:53:29.098Z,36.42
2022-07-25T10:58:31.960Z,36.73
2022-07-25T11:03:34.905Z,36.9
2022-07-25T11:08:37.408Z,36.7
2022-07-25T11:13:40.204Z,36.63
2022-07-25T11:23:46.049Z,37.32
2022-07-25T11:28:49.042Z,37.31
2022-07-25T11:33:52.037Z,38.2
2022-07-25T11:38:55.049Z,37.24
2022-07-25T11:43:57.719Z,36.77
2022-07-25T11:49:00.807Z,37.46
2022-07-25T11:54:03.526Z,37.74
2022-07-25T11:59:06.455Z,37.67
2022-07-25T12:04:08.823Z,37.12
2022-07-25T12:09:15.089Z,36.6
2022-07-25T12:14:14.095Z,36.47
2022-07-25T12:24:19.757Z,36.08
2022-07-25T12:29:22.566Z,35.99
2022-07-25T12:34:25.372Z,36.02
2022-07-25T12:44:31.130Z,36.05
2022-07-25T12:59:42.241Z,36.43
2022-07-25T13:09:47.855Z,36.45
2022-07-25T13:14:50.617Z,36.21
2022-07-25T13:19:53.356Z,36.26
2022-07-25T13:24:56.109Z,36.48
2022-07-25T13:30:01.738Z,36.47
2022-07-25T13:35:04.498Z,36.41
2022-07-25T13:40:07.287Z,36.23
2022-07-25T13:50:13.038Z,36.56
2022-07-25T13:55:15.772Z,36.12
2022-07-25T14:00:18.740Z,36.42
2022-07-25T14:15:26.434Z,36.63
2022-07-25T14:25:32.294Z,35.89
2022-07-25T14:35:37.511Z,35.08
2022-07-25T14:40:40.239Z,35.44
2022-07-25T14:45:42.952Z,35.27
2022-07-25T14:50:45.614Z,35
2022-07-25T14:55:48.399Z,34.87
2022-07-25T15:06:10.615Z,34.87
2022-07-25T15:16:50.097Z,35.06
2022-07-25T15:21:52.588Z,35.5
2022-07-25T15:31:58.186Z,35.71
2022-07-25T15:37:00.999Z,35.6
2022-07-25T15:47:06.483Z,36.35
2022-07-25T15:52:10.697Z,36.33
2022-07-25T15:57:13.046Z,36.07
2022-07-25T16:02:24.485Z,35.79
2022-07-25T16:07:27.164Z,35.57
2022-07-25T16:12:29.614Z,35.09
2022-07-25T16:17:32.235Z,34.85
2022-07-25T16:22:35.024Z,34.7
2022-07-25T16:27:37.482Z,34.49
2022-07-25T16:32:40.489Z,34.42
2022-07-25T16:37:43.124Z,34.22
2022-07-25T16:42:45.700Z,34.02
2022-07-25T16:47:51.050Z,33.59
2022-07-25T16:52:53.424Z,31.99
2022-07-25T16:57:55.747Z,30.82
2022-07-25T17:02:58.102Z,30.4
2022-07-25T17:18:06.207Z,29.67
2022-07-25T17:28:11.529Z,28.36
2022-07-25T17:43:19.046Z,27.42
2022-07-25T17:48:21.777Z,27.02
2022-07-25T17:53:24.375Z,26.99
2022-07-25T17:58:29.908Z,26.75
2022-07-25T18:03:32.437Z,26.79
2022-07-25T18:08:35.407Z,26.7
2022-07-25T18:13:41.778Z,26.88
2022-07-25T18:23:50.383Z,27.07
2022-07-25T18:28:52.940Z,26.93
2022-07-25T18:33:58.354Z,26.87
2022-07-25T18:39:01.008Z,26.75
2022-07-25T18:44:06.936Z,26.63
2022-07-25T18:49:15.362Z,26.48
2022-07-25T18:54:18.147Z,26.38
2022-07-25T18:59:20.716Z,26.29
2022-07-25T19:09:29.297Z,26.16
2022-07-25T19:19:34.729Z,25.94
2022-07-25T19:29:40.296Z,25.85
2022-07-25T19:34:43.029Z,25.81
2022-07-25T19:39:45.771Z,25.77
2022-07-25T19:44:48.316Z,25.64
2022-07-25T19:49:50.984Z,25.79
2022-07-25T19:54:53.713Z,25.92
2022-07-25T19:59:56.350Z,26.12
2022-07-25T20:04:59.034Z,26.06
2022-07-25T20:10:04.499Z,26.01
2022-07-25T20:15:07.210Z,25.85
2022-07-25T20:20:10.013Z,25.64
2022-07-25T20:25:12.708Z,25.59
2022-07-25T20:30:15.245Z,25.49
2022-07-25T20:35:18.087Z,25.37
2022-07-25T20:40:20.548Z,25.08
2022-07-25T20:45:23.176Z,24.86
2022-07-25T20:50:25.974Z,24.7
2022-07-25T20:55:28.610Z,24.52
2022-07-25T21:00:31.105Z,24.34
2022-07-25T21:05:34.020Z,24.24
2022-07-25T21:10:36.543Z,23.93
2022-07-25T21:15:39.418Z,23.85
2022-07-25T21:20:41.839Z,23.8
2022-07-25T21:25:44.518Z,23.7
2022-07-25T21:30:47.018Z,23.71
2022-07-25T21:35:51.162Z,23.79
2022-07-25T21:40:57.565Z,23.9
2022-07-25T21:46:00.310Z,23.98
2022-07-25T21:51:07.596Z,23.08
2022-07-25T21:56:05.894Z,22.07
2022-07-25T22:01:08.606Z,21.8
2022-07-25T22:06:10.985Z,21.45
2022-07-25T22:11:16.187Z,21.3
2022-07-25T22:16:16.244Z,21.17
2022-07-25T22:21:19.022Z,21.15
2022-07-25T22:26:21.579Z,21.22
2022-07-25T22:31:24.476Z,21.33
2022-07-25T22:36:27.010Z,21.21
2022-07-25T22:41:29.572Z,21.27
2022-07-25T22:46:32.128Z,21.24
2022-07-25T22:51:37.698Z,21.23
2022-07-25T22:56:40.431Z,21.3
2022-07-25T23:01:43.061Z,21.3
2022-07-25T23:06:45.733Z,21.36
2022-07-25T23:11:48.362Z,21.41
2022-07-25T23:16:51.176Z,21.47
2022-07-25T23:21:53.634Z,21.31
2022-07-25T23:42:06.999Z,21.08
2022-07-25T23:47:10.110Z,21.02
2022-07-25T23:52:12.078Z,20.82
2022-07-25T23:57:20.314Z,20.71
